Aérodrome :
LOGIN :

S'inscrire | Disclaimer

   EN    FR    IT 

 










Légende :    VFR   VFR Marginal   IFR   IFR Intensif   IFR Très Intensif
Visi : 
Plafond : 
>= 8 km
>= 3000ft
5 à 8 km
1000 à 3000 ft
1500m à 5 km
500 à 1000 ft
800 à 1500m
200 à 500 ft
< 800m
< 200 ft
Symboles :   Orages  Brouillard  Fortes neiges  Fortes précipitations  Vent > 20 kt
SIGMETs :   Divers  Orages  Givrage  Turbulence  Onde Orograph.  Cendres Volcan.







- Altitude de l'aérodrome : 1197 ft
- Code IATA : SPM


ETAD - Spangdahlem Ab

DERNIER METAR :
  • 230856Z AUTO 25006KT 9999 BKN012 BKN017 OVC029 15/14 A3001 RMK AO2 SLP148 60001 T01450135 52017 $

METARs EXPIRÉS :
  • 230756Z AUTO 24007KT 9999 BKN010 BKN014 OVC034 14/14 A2999 RMK AO2 DZB03E06RAB06E16DZB16E19DZB35E45 CIG 010V015 SLP140 P0001 T01380138 $
  • 230745Z AUTO 23007KT 9999 SCT009 BKN015 BKN020 OVC031 14/14 A2999 RMK AO2 DZB03E06RAB06E16DZB16E19DZB35E45 CIG 014V019 CIG 007 RWY23 SLP140 $
  • 230735Z AUTO 23006KT 9999 -DZ FEW008 BKN014 BKN019 OVC029 14/14 A2998 RMK AO2 DZB03E06RAB06E16DZB16E19DZB35 CIG 014V018 CIG 013 RWY23 SLP137 $
  • 230719Z AUTO 23007KT 9999 SCT008 OVC018 14/14 A2998 RMK AO2 DZB03E06RAB06E16DZB16E19 CIG 008V018 CIG 005 RWY23 CIG 006 RWY24 SLP137 $
  • 230703Z AUTO 23008KT 9999 -DZ BKN008 OVC012 14/14 A2998 RMK AO2 DZB03 BKN V OVC CIG 005 RWY23 SLP137 $
  • 230656Z AUTO 22008KT 9999 OVC008 14/14 A2997 RMK AO2 RAB41E51DZB51E52 CIG 004 RWY23 CIG 007 RWY24 SLP133 P0000 T01380138 $
  • 230642Z AUTO 22007KT 9999 -RA OVC007 14/14 A2997 RMK AO2 RAB41 CIG 003 RWY23 SLP133 $
  • 230626Z AUTO 21007KT 9999 OVC006 14/14 A2996 RMK AO2 CIG 004V006 CIG 003 RWY23 CIG 004 RWY24 SLP130 $
  • 230611Z AUTO 21005KT 9999 OVC003 14/14 A2996 RMK AO2 CIG 003V005 SLP130 $

TAF AMD TAF ETAD
Valide du 23 à 07h jusqu'au 24 à 10h UTC


230745Z 2307/2410 21009KT 9000 -SHRA SCT009 BKN015 OVC030 QNH2982INS
BECMG 2308/2309 24012G18KT 9999 NSW SCT010 BKN025 QNH2995INS
BECMG 2322/2323 19004KT 6000 BR SCT007 BKN015 QNH2998INS
BECMG 2406/2407 17012KT 9999 NSW FEW010 SCT015 OVC020 QNH2992INS TX17/2315Z TN11/2403Z
Pas de NOTAMs connus pour ce terrain.



MET'MAP, la Météo Aéronautique d'un coup d'oeil ! - Copyright ORBIFLY Décembre 2007 - Disclaimer

ORBIFLY MET'MAP TEAM :

Programmation & Développement : Alexandra Zaïnal
Conception & Développement : Baudouin d'Aumeries
Co-Programmation & Développement : Marc-Olivier Méhu
Soutien technique & logistique : Manuel Goepfert

Contact : metmap@orbifly.com




SOURCES & CREDITS :

   NOAA